La Gloria, Texas
Current Conditions -  °F | °C
As of 3:35 PM on Thursday 18 Dec 2014 (Local Time) from KEBG Reporting Station
Overcast Overcast  
Wind Chill: 73°   Ceiling: 4800
Heat Index: 73°   Visibility: 10mi
Dew Point: 66°   Wind: 0mph
Humidity: 80%   Direction: NA
Pressure: 29.95"   Gusts: NA
Location:  26.743°N, 98.5297°W
Report Text: KEBG 182135Z AUTO 00000KT 10SM SCT030 OVC048 23/19 A2995 RMK AO2 T02270190
Loading
Personal Weather Stations






























Interactive Weather Map New forecast layout! Learn more

10-Day Weather Forecast

Advertisements
Track Severe Weather on mobile